Time;durP1;ratioP1;P1;durP2;ratioP2;P2;SDS_P1;SDS_P2;PMS_P1;PMS_P2;Temp;Humidity;BMP_temperature;BMP_pressure;BME280_temperature;BME280_humidity;BME280_pressure;Samples;Min_cycle;Max_cycle;Signal;HPM_P1;HPM_P2
2021/11/11 00:01:18;;;;;;;54.90;38.37;;;;;;;;;;4995288;28;20181;-74
2021/11/11 00:03:44;;;;;;;48.37;37.43;;;;;;;;;;4999402;28;20184;-74
2021/11/11 00:06:09;;;;;;;57.60;38.30;;;;;;;;;;4998523;28;20205;-73
2021/11/11 00:08:34;;;;;;;47.83;37.20;;;;;;;;;;4998018;28;20296;-74
2021/11/11 00:11:00;;;;;;;55.53;39.80;;;;;;;;;;4997520;28;20212;-74
2021/11/11 00:13:25;;;;;;;60.80;40.23;;;;;;;;;;4999151;28;20180;-74
2021/11/11 00:15:51;;;;;;;55.37;39.97;;;;;;;;;;5000037;28;20947;-74
2021/11/11 00:18:16;;;;;;;57.27;39.93;;;;;;;;;;5000411;28;20195;-74
2021/11/11 00:20:42;;;;;;;57.53;38.43;;;;;;;;;;4998763;28;20272;-74
2021/11/11 00:23:07;;;;;;;50.50;38.47;;;;;;;;;;4996752;28;20191;-74
2021/11/11 00:25:32;;;;;;;53.73;38.83;;;;;;;;;;4997029;28;20227;-74
2021/11/11 00:27:58;;;;;;;51.00;37.30;;;;;;;;;;4999843;28;20300;-73
2021/11/11 00:30:24;;;;;;;52.90;38.47;;;;;;;;;;4998329;28;20579;-74
2021/11/11 00:32:50;;;;;;;49.90;36.37;;;;;;;;;;4999736;28;20715;-74
2021/11/11 00:35:16;;;;;;;55.10;38.00;;;;;;;;;;4998958;28;20189;-74
2021/11/11 00:37:42;;;;;;;53.83;37.47;;;;;;;;;;4997883;28;20432;-74
2021/11/11 00:40:08;;;;;;;50.07;37.23;;;;;;;;;;5005221;28;20512;-74
2021/11/11 00:42:34;;;;;;;49.30;36.80;;;;;;;;;;4997912;28;20177;-74
2021/11/11 00:44:59;;;;;;;55.90;37.03;;;;;;;;;;5001679;28;20806;-74
2021/11/11 00:47:25;;;;;;;57.20;39.03;;;;;;;;;;4999274;28;20185;-74
2021/11/11 00:49:50;;;;;;;53.80;37.53;;;;;;;;;;4999538;28;20248;-74
2021/11/11 00:52:16;;;;;;;59.27;38.77;;;;;;;;;;4999988;28;20178;-74
2021/11/11 00:54:42;;;;;;;60.73;39.87;;;;;;;;;;4998235;28;20201;-74
2021/11/11 00:57:08;;;;;;;61.77;37.57;;;;;;;;;;4998689;28;20256;-73
2021/11/11 00:59:33;;;;;;;60.67;40.40;;;;;;;;;;4996854;28;20476;-73
2021/11/11 01:01:58;;;;;;;51.53;36.03;;;;;;;;;;4998963;28;20208;-74
2021/11/11 01:04:24;;;;;;;59.70;40.93;;;;;;;;;;4999471;28;20201;-74
2021/11/11 01:06:49;;;;;;;56.03;38.03;;;;;;;;;;4995393;28;20193;-74
2021/11/11 01:09:15;;;;;;;56.17;38.07;;;;;;;;;;4999919;28;20211;-73
2021/11/11 01:11:41;;;;;;;56.93;37.60;;;;;;;;;;4997940;28;20543;-74
2021/11/11 01:14:06;;;;;;;59.90;37.20;;;;;;;;;;4995659;28;21163;-73
2021/11/11 01:16:31;;;;;;;67.63;41.70;;;;;;;;;;5009049;28;20423;-74
2021/11/11 01:18:57;;;;;;;52.57;38.10;;;;;;;;;;4997664;28;20993;-74
2021/11/11 01:21:22;;;;;;;63.53;38.00;;;;;;;;;;4999595;28;20269;-74
2021/11/11 01:23:47;;;;;;;50.97;36.33;;;;;;;;;;4996813;28;20188;-74
2021/11/11 01:26:13;;;;;;;47.00;35.60;;;;;;;;;;4997708;28;20216;-74
2021/11/11 01:28:38;;;;;;;46.03;33.93;;;;;;;;;;4998469;28;20328;-73
2021/11/11 01:31:03;;;;;;;52.63;34.53;;;;;;;;;;4998278;28;20181;-74
2021/11/11 01:33:29;;;;;;;53.73;36.90;;;;;;;;;;4998561;28;20247;-73
2021/11/11 01:35:54;;;;;;;53.60;35.30;;;;;;;;;;4995990;28;20205;-73
2021/11/11 01:38:19;;;;;;;47.73;33.87;;;;;;;;;;4995197;28;20463;-74
2021/11/11 01:40:45;;;;;;;51.23;32.90;;;;;;;;;;4998498;28;20272;-74
2021/11/11 01:43:10;;;;;;;45.53;31.33;;;;;;;;;;4997574;28;20201;-73
2021/11/11 01:45:37;;;;;;;51.20;33.30;;;;;;;;;;4996897;28;20232;-73
2021/11/11 01:48:04;;;;;;;41.87;31.93;;;;;;;;;;4997010;28;20209;-74
2021/11/11 01:50:30;;;;;;;52.07;33.20;;;;;;;;;;4998791;28;20450;-73
2021/11/11 01:52:56;;;;;;;52.10;32.50;;;;;;;;;;4999329;28;20519;-75
2021/11/11 01:55:22;;;;;;;55.30;33.90;;;;;;;;;;4999834;28;20205;-74
2021/11/11 01:57:47;;;;;;;46.47;30.90;;;;;;;;;;4998410;28;20427;-74
2021/11/11 02:00:15;;;;;;;44.60;31.67;;;;;;;;;;4994962;28;20231;-74
2021/11/11 02:02:41;;;;;;;47.20;30.23;;;;;;;;;;4997301;28;20264;-74
2021/11/11 02:05:06;;;;;;;46.40;32.40;;;;;;;;;;4999787;28;20567;-74
2021/11/11 02:07:32;;;;;;;43.87;30.17;;;;;;;;;;4996273;28;20529;-74
2021/11/11 02:09:57;;;;;;;52.50;32.93;;;;;;;;;;4997531;28;20248;-74
2021/11/11 02:12:22;;;;;;;47.53;31.37;;;;;;;;;;4995716;28;20209;-74
2021/11/11 02:14:48;;;;;;;46.60;31.67;;;;;;;;;;4998779;28;20233;-74
2021/11/11 02:17:13;;;;;;;48.93;31.10;;;;;;;;;;4992235;28;20228;-74
2021/11/11 02:19:55;;;;;;;50.47;31.57;;;;;;;;;;4996152;28;20297;-74
2021/11/11 02:22:21;;;;;;;48.30;30.80;;;;;;;;;;4995390;28;20551;-74
2021/11/11 02:24:47;;;;;;;41.63;29.07;;;;;;;;;;4992479;28;20499;-74
2021/11/11 02:27:12;;;;;;;41.77;31.60;;;;;;;;;;4995326;28;20436;-74
2021/11/11 02:29:37;;;;;;;47.90;31.17;;;;;;;;;;4995227;28;20216;-74
2021/11/11 02:32:02;;;;;;;49.60;31.03;;;;;;;;;;4994105;28;20180;-74
2021/11/11 02:34:28;;;;;;;49.33;30.37;;;;;;;;;;4997979;28;20205;-74
2021/11/11 02:36:53;;;;;;;53.03;31.80;;;;;;;;;;4998338;28;20184;-74
2021/11/11 02:39:18;;;;;;;50.27;31.40;;;;;;;;;;4998839;28;20683;-74
2021/11/11 02:41:46;;;;;;;42.53;26.97;;;;;;;;;;4991837;28;20200;-74
2021/11/11 02:44:12;;;;;;;42.33;27.37;;;;;;;;;;4996705;28;20186;-74
2021/11/11 02:46:37;;;;;;;40.80;27.93;;;;;;;;;;4992666;28;20846;-74
2021/11/11 02:49:02;;;;;;;44.03;28.70;;;;;;;;;;4997402;28;20212;-74
2021/11/11 02:51:27;;;;;;;40.27;28.77;;;;;;;;;;4998308;28;20188;-74
2021/11/11 02:53:53;;;;;;;41.70;27.83;;;;;;;;;;4993160;28;20730;-74
2021/11/11 02:56:18;;;;;;;40.53;27.33;;;;;;;;;;4997007;28;20198;-74
2021/11/11 02:58:43;;;;;;;48.10;27.60;;;;;;;;;;4992977;28;20185;-74
2021/11/11 03:01:09;;;;;;;52.73;27.50;;;;;;;;;;4998969;28;20196;-74
2021/11/11 03:03:35;;;;;;;53.70;29.70;;;;;;;;;;5001734;28;20192;-74
2021/11/11 03:06:00;;;;;;;44.50;27.43;;;;;;;;;;4999213;28;20457;-74
2021/11/11 03:08:27;;;;;;;46.93;28.50;;;;;;;;;;5000769;28;20205;-74
2021/11/11 03:10:52;;;;;;;42.83;27.83;;;;;;;;;;4998424;28;20181;-74
2021/11/11 03:13:18;;;;;;;39.07;25.30;;;;;;;;;;4999664;28;20432;-74
2021/11/11 03:15:43;;;;;;;44.63;26.50;;;;;;;;;;5001031;28;20627;-74
2021/11/11 03:18:10;;;;;;;34.03;24.37;;;;;;;;;;5001321;28;20424;-74
2021/11/11 03:20:35;;;;;;;44.73;27.10;;;;;;;;;;5002316;28;20185;-74
2021/11/11 03:23:03;;;;;;;46.43;28.40;;;;;;;;;;4996924;28;20493;-74
2021/11/11 03:25:30;;;;;;;42.27;26.53;;;;;;;;;;4999249;28;20304;-74
2021/11/11 03:27:55;;;;;;;42.63;26.20;;;;;;;;;;5001455;28;20796;-74
2021/11/11 03:30:21;;;;;;;36.33;25.70;;;;;;;;;;5001732;28;20436;-74
2021/11/11 03:32:47;;;;;;;39.10;25.20;;;;;;;;;;4999268;28;20208;-74
2021/11/11 03:37:48;;;;;;;42.27;27.00;;;;;;;;;;5654407;23;20323;-72
2021/11/11 03:40:16;;;;;;;41.43;24.90;;;;;;;;;;5010554;28;20538;-72
2021/11/11 03:42:41;;;;;;;43.80;26.50;;;;;;;;;;5010294;28;20435;-72
2021/11/11 03:45:07;;;;;;;44.90;25.40;;;;;;;;;;5012882;28;20858;-73
2021/11/11 03:47:33;;;;;;;43.90;25.77;;;;;;;;;;5005859;28;20209;-71
2021/11/11 03:49:58;;;;;;;39.60;24.60;;;;;;;;;;4991447;28;20467;-72
2021/11/11 03:52:23;;;;;;;45.90;26.43;;;;;;;;;;4998983;28;20177;-72
2021/11/11 03:54:48;;;;;;;50.13;26.33;;;;;;;;;;4991701;28;20174;-72
2021/11/11 03:57:17;;;;;;;42.60;27.00;;;;;;;;;;4994234;28;20255;-72
2021/11/11 03:59:42;;;;;;;43.20;25.90;;;;;;;;;;4994056;28;20639;-72
2021/11/11 04:02:08;;;;;;;52.67;27.73;;;;;;;;;;4982666;28;20448;-72
2021/11/11 04:04:33;;;;;;;42.27;24.60;;;;;;;;;;4990339;28;20185;-73
2021/11/11 04:06:59;;;;;;;39.37;25.50;;;;;;;;;;4994348;28;20271;-73
2021/11/11 04:09:24;;;;;;;47.33;27.67;;;;;;;;;;4991322;28;20213;-74
2021/11/11 04:11:50;;;;;;;38.33;25.70;;;;;;;;;;5000772;28;20235;-73
2021/11/11 04:14:16;;;;;;;42.20;26.77;;;;;;;;;;4995120;28;20651;-73
2021/11/11 04:16:42;;;;;;;40.97;26.50;;;;;;;;;;4995131;28;20436;-73
2021/11/11 04:19:07;;;;;;;42.00;26.40;;;;;;;;;;4991781;28;20201;-73
2021/11/11 04:21:33;;;;;;;42.07;27.90;;;;;;;;;;4992026;28;22181;-73
2021/11/11 04:23:58;;;;;;;45.13;25.90;;;;;;;;;;4990791;28;20193;-73
2021/11/11 04:29:03;;;;;;;39.23;26.70;;;;;;;;;;4993013;28;20609;-73
2021/11/11 04:31:32;;;;;;;44.00;26.33;;;;;;;;;;4995665;28;20173;-73
2021/11/11 04:34:17;;;;;;;48.00;28.57;;;;;;;;;;4994119;28;20424;-73
2021/11/11 05:05:16;;;;;;;51.33;30.67;;;;;;;;;;4992244;28;20426;-73
2021/11/11 05:07:41;;;;;;;44.13;29.57;;;;;;;;;;4989692;28;20453;-73
2021/11/11 05:10:07;;;;;;;45.63;30.70;;;;;;;;;;4992315;28;20213;-73
2021/11/11 05:12:32;;;;;;;44.10;30.57;;;;;;;;;;4989394;28;20239;-73
2021/11/11 05:14:57;;;;;;;47.70;31.33;;;;;;;;;;4989288;28;20285;-73
2021/11/11 05:17:24;;;;;;;45.63;30.47;;;;;;;;;;4994375;28;20193;-73
2021/11/11 05:19:51;;;;;;;49.30;27.67;;;;;;;;;;4991673;28;20185;-73
2021/11/11 05:22:16;;;;;;;47.60;31.13;;;;;;;;;;4990979;28;20447;-73
2021/11/11 05:24:41;;;;;;;53.93;31.63;;;;;;;;;;4995692;28;20444;-73
2021/11/11 05:27:07;;;;;;;52.60;32.57;;;;;;;;;;4991310;28;20652;-73
2021/11/11 05:29:32;;;;;;;53.63;33.40;;;;;;;;;;4989743;28;20247;-73
2021/11/11 05:31:57;;;;;;;52.90;32.13;;;;;;;;;;4990471;28;20220;-73
2021/11/11 05:34:23;;;;;;;51.63;33.43;;;;;;;;;;4996553;28;20187;-73
2021/11/11 05:36:48;;;;;;;56.53;33.27;;;;;;;;;;4988021;28;20209;-73
2021/11/11 05:39:14;;;;;;;53.40;34.03;;;;;;;;;;4991551;28;20235;-73
2021/11/11 05:41:40;;;;;;;49.87;33.27;;;;;;;;;;4991967;28;20217;-74
2021/11/11 05:44:05;;;;;;;53.20;32.73;;;;;;;;;;4989742;28;20186;-73
2021/11/11 05:46:30;;;;;;;55.57;33.30;;;;;;;;;;4992020;28;21543;-73
2021/11/11 05:48:55;;;;;;;54.53;34.07;;;;;;;;;;4992262;28;20209;-74
2021/11/11 05:51:21;;;;;;;55.00;33.97;;;;;;;;;;4991740;28;20640;-74
2021/11/11 05:53:46;;;;;;;64.20;33.03;;;;;;;;;;4992765;28;20205;-74
2021/11/11 05:56:11;;;;;;;54.80;33.67;;;;;;;;;;4989844;28;20189;-74
2021/11/11 05:58:36;;;;;;;51.90;31.20;;;;;;;;;;4988264;28;20218;-74
2021/11/11 06:01:02;;;;;;;62.90;36.70;;;;;;;;;;4988159;28;20192;-74
2021/11/11 06:03:28;;;;;;;57.20;35.90;;;;;;;;;;4982111;28;20670;-74
2021/11/11 06:05:53;;;;;;;56.87;35.80;;;;;;;;;;4989636;28;20450;-74
2021/11/11 06:08:18;;;;;;;56.90;35.20;;;;;;;;;;4984503;28;20698;-74
2021/11/11 06:10:43;;;;;;;55.77;35.83;;;;;;;;;;4983941;28;25196;-74
2021/11/11 06:13:09;;;;;;;68.33;39.67;;;;;;;;;;4984628;28;20178;-74
2021/11/11 06:15:34;;;;;;;62.73;35.03;;;;;;;;;;4982184;28;20186;-74
2021/11/11 06:17:59;;;;;;;57.43;37.10;;;;;;;;;;4983381;28;20735;-74
2021/11/11 06:20:32;;;;;;;58.43;34.87;;;;;;;;;;4993556;28;20188;-74
2021/11/11 06:22:58;;;;;;;52.17;36.93;;;;;;;;;;4993320;28;20231;-74
2021/11/11 06:25:23;;;;;;;59.30;36.90;;;;;;;;;;4989043;28;20429;-74
2021/11/11 06:27:49;;;;;;;70.37;39.90;;;;;;;;;;4992394;28;20456;-74
2021/11/11 06:30:14;;;;;;;54.50;35.83;;;;;;;;;;4991720;28;20296;-74
2021/11/11 06:32:39;;;;;;;60.70;39.23;;;;;;;;;;4990818;28;20186;-74
2021/11/11 06:35:05;;;;;;;61.47;40.30;;;;;;;;;;4991939;28;20188;-74
2021/11/11 06:37:30;;;;;;;62.10;37.73;;;;;;;;;;4987405;28;20229;-74
2021/11/11 06:39:56;;;;;;;62.73;40.17;;;;;;;;;;4994454;28;20300;-74
2021/11/11 06:42:21;;;;;;;70.07;42.73;;;;;;;;;;4996671;28;20565;-74
2021/11/11 06:44:48;;;;;;;62.00;40.60;;;;;;;;;;4999030;28;20212;-74
2021/11/11 06:47:13;;;;;;;67.23;43.00;;;;;;;;;;4993472;28;20542;-74
2021/11/11 06:49:38;;;;;;;60.77;41.50;;;;;;;;;;4991237;28;20452;-74
2021/11/11 06:52:04;;;;;;;64.93;44.30;;;;;;;;;;4990551;28;20270;-74
2021/11/11 06:54:30;;;;;;;68.60;46.93;;;;;;;;;;4989276;28;20189;-74
2021/11/11 06:56:55;;;;;;;65.37;45.07;;;;;;;;;;4994444;28;20185;-74
2021/11/11 06:59:20;;;;;;;66.07;44.80;;;;;;;;;;4996550;28;21009;-74
2021/11/11 07:01:45;;;;;;;71.67;47.23;;;;;;;;;;4997203;28;20211;-74
2021/11/11 07:04:11;;;;;;;63.13;47.13;;;;;;;;;;4995967;28;20170;-74
2021/11/11 07:06:36;;;;;;;63.63;44.90;;;;;;;;;;4994412;28;20209;-74
2021/11/11 07:09:02;;;;;;;62.17;44.20;;;;;;;;;;4991399;28;21006;-74
2021/11/11 07:11:28;;;;;;;59.20;44.13;;;;;;;;;;4994012;28;20822;-74
2021/11/11 07:13:53;;;;;;;67.07;45.90;;;;;;;;;;4995599;28;20435;-74
2021/11/11 07:16:18;;;;;;;73.47;53.67;;;;;;;;;;4995040;28;20192;-74
2021/11/11 07:18:43;;;;;;;69.27;49.00;;;;;;;;;;4998931;28;20232;-74
2021/11/11 07:21:09;;;;;;;71.57;48.63;;;;;;;;;;4994140;28;20181;-74
2021/11/11 07:23:34;;;;;;;70.70;50.33;;;;;;;;;;4991388;28;20264;-74
2021/11/11 07:25:59;;;;;;;66.87;47.60;;;;;;;;;;4996357;28;20186;-74
2021/11/11 07:28:26;;;;;;;75.10;49.13;;;;;;;;;;4994441;28;20267;-74
2021/11/11 07:30:51;;;;;;;66.97;48.33;;;;;;;;;;4994378;28;20177;-75
2021/11/11 07:33:17;;;;;;;66.00;46.43;;;;;;;;;;4993677;28;20431;-74
2021/11/11 07:35:44;;;;;;;63.50;47.67;;;;;;;;;;4994092;28;20181;-74
2021/11/11 07:38:09;;;;;;;60.27;45.37;;;;;;;;;;4990430;28;20751;-74
2021/11/11 07:40:38;;;;;;;67.00;44.13;;;;;;;;;;4990515;28;20429;-74
2021/11/11 07:43:04;;;;;;;68.53;46.43;;;;;;;;;;4991281;28;20532;-74
2021/11/11 07:45:30;;;;;;;63.93;45.53;;;;;;;;;;4989449;28;20556;-74
2021/11/11 07:47:58;;;;;;;69.63;45.90;;;;;;;;;;4989666;28;20256;-75
2021/11/11 07:50:25;;;;;;;69.73;47.13;;;;;;;;;;4991904;28;20439;-74
2021/11/11 07:52:50;;;;;;;61.10;43.27;;;;;;;;;;4991010;28;20519;-74
2021/11/11 07:55:16;;;;;;;60.83;42.73;;;;;;;;;;4990856;28;20515;-74
2021/11/11 07:57:42;;;;;;;59.93;42.03;;;;;;;;;;4987996;28;20207;-74
2021/11/11 08:00:08;;;;;;;59.07;40.00;;;;;;;;;;4992271;28;20694;-74
2021/11/11 08:02:34;;;;;;;63.20;42.07;;;;;;;;;;4992797;28;20178;-74
2021/11/11 08:04:59;;;;;;;60.30;41.00;;;;;;;;;;4992542;28;20451;-74
2021/11/11 08:07:24;;;;;;;60.97;41.47;;;;;;;;;;4990505;28;20213;-74
2021/11/11 08:09:50;;;;;;;63.50;45.27;;;;;;;;;;4990503;28;20296;-74
2021/11/11 08:12:16;;;;;;;62.67;43.47;;;;;;;;;;4992841;28;20260;-74
2021/11/11 08:14:41;;;;;;;61.60;42.50;;;;;;;;;;4991317;28;20224;-74
2021/11/11 08:17:08;;;;;;;61.37;41.93;;;;;;;;;;4990038;28;21014;-74
2021/11/11 08:19:33;;;;;;;61.07;40.10;;;;;;;;;;4991909;28;20185;-73
2021/11/11 08:21:59;;;;;;;58.43;39.87;;;;;;;;;;4991255;28;20437;-74
2021/11/11 08:24:24;;;;;;;59.93;40.07;;;;;;;;;;4994188;28;20271;-74
2021/11/11 08:26:49;;;;;;;53.93;38.23;;;;;;;;;;4986997;28;20248;-74
2021/11/11 08:29:15;;;;;;;59.70;38.80;;;;;;;;;;4995434;28;20197;-74
2021/11/11 08:31:40;;;;;;;57.23;38.07;;;;;;;;;;4994364;28;20643;-74
2021/11/11 08:34:06;;;;;;;54.20;37.73;;;;;;;;;;4994608;28;20183;-74
2021/11/11 08:36:31;;;;;;;47.00;35.10;;;;;;;;;;4995401;28;20173;-74
2021/11/11 08:38:57;;;;;;;49.37;37.07;;;;;;;;;;4992586;28;20299;-73
2021/11/11 08:41:23;;;;;;;51.53;35.13;;;;;;;;;;4994364;28;20213;-74
2021/11/11 08:43:49;;;;;;;48.33;35.13;;;;;;;;;;4994120;28;20429;-74
2021/11/11 08:46:14;;;;;;;48.60;36.10;;;;;;;;;;4978848;28;20197;-74
2021/11/11 08:48:39;;;;;;;52.67;37.07;;;;;;;;;;4979992;28;20210;-75
2021/11/11 08:51:05;;;;;;;55.80;36.07;;;;;;;;;;4994642;28;20172;-74
2021/11/11 08:53:31;;;;;;;59.67;41.37;;;;;;;;;;4993470;28;20178;-74
2021/11/11 08:55:57;;;;;;;55.87;39.47;;;;;;;;;;4993590;28;20867;-74
2021/11/11 08:58:22;;;;;;;63.70;40.00;;;;;;;;;;4990807;28;20208;-74
2021/11/11 09:00:52;;;;;;;61.83;41.50;;;;;;;;;;4993956;28;20216;-74
2021/11/11 09:03:18;;;;;;;54.13;38.60;;;;;;;;;;4991877;28;20185;-74
2021/11/11 09:05:44;;;;;;;56.27;38.20;;;;;;;;;;4993480;28;20463;-74
2021/11/11 09:08:09;;;;;;;53.00;38.17;;;;;;;;;;4994901;28;20481;-74
2021/11/11 09:10:40;;;;;;;49.83;37.30;;;;;;;;;;4990373;28;20805;-74
2021/11/11 09:13:05;;;;;;;59.53;37.63;;;;;;;;;;4993714;28;20272;-74
2021/11/11 09:15:30;;;;;;;59.43;40.87;;;;;;;;;;4994895;28;20502;-75
2021/11/11 09:17:56;;;;;;;56.07;40.70;;;;;;;;;;4994274;28;20201;-74
2021/11/11 09:20:23;;;;;;;51.23;38.67;;;;;;;;;;4995345;28;20260;-74
2021/11/11 09:22:49;;;;;;;46.90;36.10;;;;;;;;;;4994936;28;20480;-75
2021/11/11 09:25:14;;;;;;;55.30;38.70;;;;;;;;;;4991928;28;21158;-74
2021/11/11 09:27:41;;;;;;;60.77;42.40;;;;;;;;;;4986582;28;20509;-74
2021/11/11 09:30:08;;;;;;;58.13;38.80;;;;;;;;;;4989929;28;20204;-75
2021/11/11 09:32:33;;;;;;;63.50;40.43;;;;;;;;;;4988978;28;20530;-75
2021/11/11 09:34:59;;;;;;;50.13;37.73;;;;;;;;;;4993359;28;20523;-73
2021/11/11 09:37:24;;;;;;;56.37;39.47;;;;;;;;;;4987350;28;20228;-74
2021/11/11 09:39:50;;;;;;;57.33;39.77;;;;;;;;;;4991517;28;20904;-75
2021/11/11 09:42:16;;;;;;;57.50;39.73;;;;;;;;;;4992169;28;20760;-74
2021/11/11 09:44:41;;;;;;;60.60;42.90;;;;;;;;;;4991582;28;20567;-74
2021/11/11 09:47:06;;;;;;;58.20;39.13;;;;;;;;;;4989127;28;20304;-74
2021/11/11 09:49:32;;;;;;;67.63;44.87;;;;;;;;;;4992572;28;20680;-74
2021/11/11 09:51:57;;;;;;;65.40;46.20;;;;;;;;;;4992163;28;20257;-74
2021/11/11 09:59:39;;;;;;;54.87;41.50;;;;;;;;;;4994077;28;20432;-74
2021/11/11 10:02:05;;;;;;;58.20;39.53;;;;;;;;;;4990999;28;20428;-75
2021/11/11 10:04:30;;;;;;;59.63;41.43;;;;;;;;;;4989210;28;20319;-74
2021/11/11 10:06:56;;;;;;;50.73;37.57;;;;;;;;;;4993794;28;20522;-74
2021/11/11 10:09:24;;;;;;;49.07;37.50;;;;;;;;;;4993758;28;20705;-75
2021/11/11 10:11:52;;;;;;;43.33;33.50;;;;;;;;;;4993122;28;20231;-74
2021/11/11 10:14:25;;;;;;;42.07;34.57;;;;;;;;;;4998927;28;20483;-74
2021/11/11 10:16:53;;;;;;;42.40;31.00;;;;;;;;;;4996438;28;20424;-74
2021/11/11 10:19:19;;;;;;;41.80;31.37;;;;;;;;;;5013171;28;20449;-74
2021/11/11 10:21:49;;;;;;;46.97;34.67;;;;;;;;;;4993869;28;21477;-74
2021/11/11 10:24:20;;;;;;;43.33;32.80;;;;;;;;;;4996300;28;20258;-73
2021/11/11 10:27:06;;;;;;;41.43;30.60;;;;;;;;;;4997017;28;20451;-73
2021/11/11 10:29:37;;;;;;;41.87;31.53;;;;;;;;;;4996992;28;20513;-73
2021/11/11 10:32:08;;;;;;;43.10;33.27;;;;;;;;;;4998502;28;20433;-73
2021/11/11 10:34:44;;;;;;;37.80;30.90;;;;;;;;;;4994669;28;20505;-71
2021/11/11 10:37:09;;;;;;;42.70;32.23;;;;;;;;;;4992897;28;20566;-72
2021/11/11 10:39:39;;;;;;;41.43;31.60;;;;;;;;;;5009030;28;20888;-72
2021/11/11 10:42:12;;;;;;;42.70;31.70;;;;;;;;;;4993010;28;20181;-71
2021/11/11 10:44:38;;;;;;;41.40;30.80;;;;;;;;;;4990721;28;20816;-71
2021/11/11 10:47:12;;;;;;;37.93;30.00;;;;;;;;;;4993398;28;20435;-71
2021/11/11 10:49:42;;;;;;;41.50;30.47;;;;;;;;;;4995042;28;20617;-72
2021/11/11 10:52:36;;;;;;;38.03;28.70;;;;;;;;;;5007757;28;20425;-72
2021/11/11 10:55:07;;;;;;;39.97;29.63;;;;;;;;;;4988653;28;20527;-71
2021/11/11 10:57:34;;;;;;;39.30;27.63;;;;;;;;;;4989793;28;20463;-71
2021/11/11 11:00:11;;;;;;;39.83;30.00;;;;;;;;;;4990584;28;20435;-71
2021/11/11 11:02:49;;;;;;;41.07;31.13;;;;;;;;;;4992161;28;20444;-71
2021/11/11 11:05:14;;;;;;;37.97;29.73;;;;;;;;;;4994664;28;20923;-71
2021/11/11 11:07:39;;;;;;;37.30;29.23;;;;;;;;;;4993588;28;20455;-71
2021/11/11 11:10:05;;;;;;;39.20;29.77;;;;;;;;;;4995448;28;20570;-72
2021/11/11 11:12:31;;;;;;;37.10;28.63;;;;;;;;;;4994757;28;20698;-72
2021/11/11 11:14:56;;;;;;;36.43;27.13;;;;;;;;;;4995324;28;20406;-71
2021/11/11 11:17:21;;;;;;;39.77;27.93;;;;;;;;;;4995971;28;20190;-71
2021/11/11 11:19:47;;;;;;;38.60;29.50;;;;;;;;;;4994855;28;20217;-71
2021/11/11 11:22:20;;;;;;;42.10;29.77;;;;;;;;;;4995187;28;20292;-71
2021/11/11 11:24:46;;;;;;;39.10;29.77;;;;;;;;;;5009864;28;20189;-71
2021/11/11 11:27:12;;;;;;;40.17;31.33;;;;;;;;;;4994141;28;20441;-71
2021/11/11 11:29:56;;;;;;;43.70;32.37;;;;;;;;;;4995811;28;20214;-71
2021/11/11 11:32:29;;;;;;;42.47;31.67;;;;;;;;;;5004421;28;20413;-71
2021/11/11 11:34:56;;;;;;;40.60;30.63;;;;;;;;;;4994926;28;20467;-71
2021/11/11 11:37:22;;;;;;;43.83;31.23;;;;;;;;;;4991267;28;20456;-71
2021/11/11 11:39:50;;;;;;;43.27;32.00;;;;;;;;;;4993426;28;20433;-71
2021/11/11 11:42:16;;;;;;;36.70;28.97;;;;;;;;;;4998721;28;20437;-71
2021/11/11 11:44:44;;;;;;;41.00;33.40;;;;;;;;;;5001313;28;20446;-72
2021/11/11 11:49:43;;;;;;;44.47;32.30;;;;;;;;;;4995608;28;20513;-71
2021/11/11 11:52:10;;;;;;;38.00;30.77;;;;;;;;;;4995056;28;20440;-71
2021/11/11 11:57:06;;;;;;;42.27;31.17;;;;;;;;;;4995294;28;20452;-72
2021/11/11 11:59:37;;;;;;;34.70;27.33;;;;;;;;;;4994920;28;20197;-72
2021/11/11 12:09:53;;;;;;;41.53;29.53;;;;;;;;;;4997264;28;20481;-72
2021/11/11 12:39:33;;;;;;;41.43;29.30;;;;;;;;;;4986905;28;20494;-72
2021/11/11 12:42:02;;;;;;;40.00;28.90;;;;;;;;;;4995127;28;20523;-72
2021/11/11 12:44:27;;;;;;;38.37;28.50;;;;;;;;;;4994484;28;20539;-71
2021/11/11 12:46:53;;;;;;;37.00;27.00;;;;;;;;;;4993770;28;21812;-71
2021/11/11 12:49:29;;;;;;;38.87;28.07;;;;;;;;;;4988165;28;20197;-73
2021/11/11 12:52:13;;;;;;;35.23;26.23;;;;;;;;;;4995302;28;20177;-73
2021/11/11 12:54:43;;;;;;;35.37;25.77;;;;;;;;;;4992956;28;20910;-71
2021/11/11 12:57:09;;;;;;;33.90;24.63;;;;;;;;;;4993732;28;20460;-71
2021/11/11 12:59:35;;;;;;;34.97;26.97;;;;;;;;;;4991229;28;20436;-71
2021/11/11 13:02:10;;;;;;;33.00;26.60;;;;;;;;;;4993602;28;20173;-72
2021/11/11 13:04:53;;;;;;;34.80;27.03;;;;;;;;;;4994054;28;20172;-71
2021/11/11 13:07:37;;;;;;;34.33;25.70;;;;;;;;;;4996547;28;20539;-72
2021/11/11 13:10:07;;;;;;;37.23;26.47;;;;;;;;;;4988989;28;20571;-71
2021/11/11 13:12:32;;;;;;;36.73;27.70;;;;;;;;;;4990636;28;20429;-71
2021/11/11 13:15:06;;;;;;;36.40;27.40;;;;;;;;;;4988434;28;20917;-71
2021/11/11 13:17:48;;;;;;;32.50;25.77;;;;;;;;;;4989465;28;20680;-71
2021/11/11 13:20:20;;;;;;;31.17;23.07;;;;;;;;;;4991656;28;21006;-71
2021/11/11 13:22:50;;;;;;;29.13;23.53;;;;;;;;;;4993552;28;20591;-71
2021/11/11 13:25:36;;;;;;;28.83;23.07;;;;;;;;;;4991858;28;20416;-70
2021/11/11 14:01:38;;;;;;;17.67;14.87;;;;;;;;;;4988803;28;20512;-71
2021/11/11 14:04:21;;;;;;;18.30;14.63;;;;;;;;;;4990158;28;20425;-71
2021/11/11 15:16:50;;;;;;;18.67;15.13;;;;;;;;;;4992910;28;20442;-72
2021/11/11 16:02:50;;;;;;;25.47;20.63;;;;;;;;;;4991556;28;21124;-73
2021/11/11 16:27:00;;;;;;;48.03;35.30;;;;;;;;;;4993487;28;20439;-74
2021/11/11 16:29:26;;;;;;;49.03;35.20;;;;;;;;;;4995100;28;20904;-73
2021/11/11 16:31:55;;;;;;;50.63;35.63;;;;;;;;;;4995856;28;20508;-73
2021/11/11 16:34:20;;;;;;;48.33;35.77;;;;;;;;;;4993154;28;20178;-73
2021/11/11 16:36:46;;;;;;;50.07;36.10;;;;;;;;;;4993553;28;20498;-74
2021/11/11 16:39:14;;;;;;;44.73;32.73;;;;;;;;;;4987744;28;20207;-73
2021/11/11 16:41:39;;;;;;;46.33;34.97;;;;;;;;;;4999237;28;20204;-74
2021/11/11 16:44:05;;;;;;;45.23;34.23;;;;;;;;;;4992162;28;21262;-73
2021/11/11 16:46:32;;;;;;;42.37;33.23;;;;;;;;;;4993792;28;20263;-74
2021/11/11 16:48:57;;;;;;;46.90;35.70;;;;;;;;;;4994557;28;20464;-74
2021/11/11 16:51:22;;;;;;;56.33;36.23;;;;;;;;;;4991556;28;20178;-73
2021/11/11 16:53:48;;;;;;;42.93;34.13;;;;;;;;;;4998681;28;20208;-73
2021/11/11 16:56:13;;;;;;;50.93;35.40;;;;;;;;;;4991022;28;20639;-74
2021/11/11 16:58:38;;;;;;;51.30;38.43;;;;;;;;;;4991134;28;20205;-74
2021/11/11 17:01:04;;;;;;;57.57;41.00;;;;;;;;;;4989045;28;20280;-73
2021/11/11 17:03:29;;;;;;;56.20;39.23;;;;;;;;;;4993414;28;20720;-73
2021/11/11 17:05:55;;;;;;;55.30;40.57;;;;;;;;;;4993641;28;20188;-73
2021/11/11 17:08:20;;;;;;;57.90;40.23;;;;;;;;;;4982964;28;20223;-73
2021/11/11 17:10:46;;;;;;;62.23;41.77;;;;;;;;;;4991945;28;20177;-73
2021/11/11 17:13:12;;;;;;;56.50;43.43;;;;;;;;;;4992811;28;20185;-73
2021/11/11 17:15:39;;;;;;;61.13;44.10;;;;;;;;;;4992514;28;20429;-73
2021/11/11 17:18:06;;;;;;;65.67;44.63;;;;;;;;;;4992665;28;20197;-73
2021/11/11 17:20:32;;;;;;;64.40;44.93;;;;;;;;;;4991678;28;20864;-73
2021/11/11 17:23:00;;;;;;;67.23;45.87;;;;;;;;;;4992411;28;20440;-73
2021/11/11 17:25:28;;;;;;;70.30;47.30;;;;;;;;;;4991072;28;20247;-73
2021/11/11 17:28:00;;;;;;;68.23;47.00;;;;;;;;;;4984162;28;20459;-73
2021/11/11 17:30:26;;;;;;;63.40;46.70;;;;;;;;;;4986621;28;20464;-74
2021/11/11 17:32:52;;;;;;;72.57;48.37;;;;;;;;;;4989489;28;20446;-73
2021/11/11 17:35:17;;;;;;;59.13;45.00;;;;;;;;;;4990946;28;20433;-73
2021/11/11 17:37:43;;;;;;;70.40;47.50;;;;;;;;;;4984701;28;20547;-73
2021/11/11 17:40:08;;;;;;;66.77;47.10;;;;;;;;;;4989900;28;20736;-73
2021/11/11 17:42:34;;;;;;;69.57;50.70;;;;;;;;;;4986673;28;20271;-74
2021/11/11 17:45:00;;;;;;;73.03;46.17;;;;;;;;;;4986517;28;20196;-74
2021/11/11 17:47:33;;;;;;;78.50;46.17;;;;;;;;;;4983641;28;22166;-73
2021/11/11 17:50:01;;;;;;;65.70;45.10;;;;;;;;;;4987643;28;20228;-73
2021/11/11 17:52:29;;;;;;;63.83;44.07;;;;;;;;;;4988283;28;20990;-72
2021/11/11 17:55:00;;;;;;;54.60;40.53;;;;;;;;;;4985655;28;20455;-72
2021/11/11 17:57:30;;;;;;;54.20;41.03;;;;;;;;;;4986626;28;20464;-72
2021/11/11 17:59:55;;;;;;;71.73;46.57;;;;;;;;;;4984716;28;20443;-72
2021/11/11 18:02:26;;;;;;;70.43;46.90;;;;;;;;;;4983283;28;20443;-73
2021/11/11 18:04:54;;;;;;;74.57;47.60;;;;;;;;;;4988311;28;20177;-73
2021/11/11 18:07:27;;;;;;;67.10;44.93;;;;;;;;;;4985686;28;20485;-73
2021/11/11 18:10:04;;;;;;;75.07;46.47;;;;;;;;;;4995794;28;20849;-73
2021/11/11 18:15:03;;;;;;;71.37;47.80;;;;;;;;;;4987788;28;20468;-72
2021/11/11 18:17:30;;;;;;;69.93;47.20;;;;;;;;;;4988387;28;20542;-73
2021/11/11 18:19:55;;;;;;;71.83;44.80;;;;;;;;;;4992386;28;20930;-73
2021/11/11 18:22:21;;;;;;;64.30;44.20;;;;;;;;;;4988517;28;20498;-73
2021/11/11 18:24:46;;;;;;;69.87;46.43;;;;;;;;;;4984845;28;20565;-73